Time;durP1;ratioP1;P1;durP2;ratioP2;P2;SDS_P1;SDS_P2;PMS_P1;PMS_P2;Temp;Humidity;BMP_temperature;BMP_pressure;BME280_temperature;BME280_humidity;BME280_pressure;Samples;Min_cycle;Max_cycle;Signal;HPM_P1;HPM_P2
2023/06/25 00:00:20;;;;;;;24.27;19.52;;;20.50;99.90;;;;;;5055599;28;20728;-61
2023/06/25 00:02:46;;;;;;;21.42;19.20;;;20.50;99.90;;;;;;5056379;28;20199;-61
2023/06/25 00:05:13;;;;;;;22.58;18.23;;;20.40;99.90;;;;;;5056416;28;20179;-60
2023/06/25 00:07:39;;;;;;;22.50;19.70;;;20.40;99.90;;;;;;5056124;28;20183;-61
2023/06/25 00:10:05;;;;;;;22.58;19.70;;;20.40;99.90;;;;;;5056430;28;20175;-61
2023/06/25 00:12:31;;;;;;;26.30;19.70;;;20.40;99.90;;;;;;5056415;28;20179;-61
2023/06/25 00:14:57;;;;;;;23.15;20.73;;;20.30;99.90;;;;;;5056313;28;20180;-61
2023/06/25 00:17:27;;;;;;;23.83;20.02;;;20.40;99.90;;;;;;5056141;28;20631;-61
2023/06/25 00:19:54;;;;;;;23.77;20.60;;;20.40;99.90;;;;;;5056065;28;20190;-61
2023/06/25 00:22:20;;;;;;;22.88;19.75;;;20.30;99.90;;;;;;5055950;28;20210;-61
2023/06/25 00:24:45;;;;;;;22.77;20.35;;;20.30;99.90;;;;;;5056159;28;20179;-61
2023/06/25 00:27:11;;;;;;;23.58;20.48;;;20.30;99.90;;;;;;5056129;28;20176;-61
2023/06/25 00:29:37;;;;;;;23.20;20.75;;;20.30;99.90;;;;;;5056101;28;20636;-61
2023/06/25 00:32:02;;;;;;;23.70;20.27;;;20.20;99.90;;;;;;5055895;28;20240;-61
2023/06/25 00:34:28;;;;;;;25.02;21.10;;;20.20;99.90;;;;;;5056240;28;20171;-61
2023/06/25 00:36:54;;;;;;;25.52;19.85;;;20.10;99.90;;;;;;5055694;28;20180;-61
2023/06/25 00:39:19;;;;;;;21.15;18.42;;;20.10;99.90;;;;;;5056006;28;20190;-61
2023/06/25 00:41:45;;;;;;;24.00;20.25;;;20.00;99.90;;;;;;5055699;28;20289;-61
2023/06/25 00:44:11;;;;;;;24.88;19.88;;;20.00;99.90;;;;;;5055827;28;20632;-61
2023/06/25 00:46:36;;;;;;;23.77;19.38;;;19.90;99.90;;;;;;5055515;28;20172;-61
2023/06/25 00:49:06;;;;;;;22.15;19.83;;;19.90;99.90;;;;;;5055680;28;20253;-61
2023/06/25 00:51:34;;;;;;;23.20;20.08;;;19.90;99.90;;;;;;5055462;28;20176;-61
2023/06/25 00:54:05;;;;;;;24.80;21.08;;;19.90;99.90;;;;;;5055564;28;20175;-61
2023/06/25 00:56:32;;;;;;;26.05;21.60;;;19.90;99.90;;;;;;5055652;28;20171;-61
2023/06/25 00:59:00;;;;;;;25.30;20.95;;;19.80;99.90;;;;;;5048822;28;20180;-61
2023/06/25 01:01:52;;;;;;;23.83;21.08;;;19.70;99.90;;;;;;5035275;28;20568;-61
2023/06/25 01:04:25;;;;;;;27.02;20.55;;;19.70;99.90;;;;;;5035340;28;20605;-60
2023/06/25 01:06:55;;;;;;;26.42;21.98;;;19.80;99.90;;;;;;5035477;28;20234;-61
2023/06/25 01:09:22;;;;;;;24.77;21.35;;;19.80;99.90;;;;;;5035269;28;20600;-61
2023/06/25 01:11:58;;;;;;;25.48;20.45;;;19.70;99.90;;;;;;5033969;28;20183;-61
2023/06/25 01:14:28;;;;;;;25.88;21.65;;;19.70;99.90;;;;;;5035097;28;20168;-61
2023/06/25 01:16:54;;;;;;;27.27;20.67;;;19.70;99.90;;;;;;5035039;28;20510;-61
2023/06/25 01:19:20;;;;;;;24.08;21.48;;;19.70;99.90;;;;;;5035090;28;20601;-61
2023/06/25 01:21:46;;;;;;;25.88;22.30;;;19.70;99.90;;;;;;5035058;28;20207;-61
2023/06/25 01:24:12;;;;;;;25.33;21.45;;;19.60;99.90;;;;;;5034963;28;20274;-61
2023/06/25 01:26:38;;;;;;;24.00;21.02;;;19.50;99.90;;;;;;5034914;28;20182;-60
2023/06/25 01:29:04;;;;;;;26.88;22.48;;;19.60;99.90;;;;;;5034771;28;20254;-61
2023/06/25 01:31:30;;;;;;;25.38;22.08;;;19.60;99.90;;;;;;5034681;28;20172;-61
2023/06/25 01:33:57;;;;;;;26.90;21.17;;;19.60;99.90;;;;;;5034862;28;20226;-61
2023/06/25 01:36:22;;;;;;;26.52;21.98;;;19.60;99.90;;;;;;5034708;28;20191;-61
2023/06/25 01:38:48;;;;;;;26.48;21.55;;;19.50;99.90;;;;;;5034761;28;20297;-60
2023/06/25 01:41:14;;;;;;;23.48;20.98;;;19.40;99.90;;;;;;5034682;28;20225;-60
2023/06/25 01:43:40;;;;;;;28.00;23.17;;;19.40;99.90;;;;;;5034508;28;20329;-60
2023/06/25 01:46:06;;;;;;;25.23;21.77;;;19.40;99.90;;;;;;5034770;28;20190;-61
2023/06/25 01:48:31;;;;;;;27.15;23.75;;;19.30;99.90;;;;;;5034622;28;20794;-61
2023/06/25 01:50:57;;;;;;;25.65;22.30;;;19.40;99.90;;;;;;5034370;28;20176;-61
2023/06/25 01:53:23;;;;;;;27.25;23.13;;;19.40;99.90;;;;;;5034340;28;20234;-60
2023/06/25 01:55:48;;;;;;;26.00;22.40;;;19.40;99.90;;;;;;5034312;28;20188;-60
2023/06/25 01:58:14;;;;;;;24.40;20.23;;;19.40;99.90;;;;;;5034211;28;20226;-60
2023/06/25 02:00:40;;;;;;;24.00;21.05;;;19.40;99.90;;;;;;5034464;28;20176;-61
2023/06/25 02:03:05;;;;;;;25.13;20.73;;;19.50;99.90;;;;;;5034295;28;20285;-61
2023/06/25 02:05:31;;;;;;;22.40;19.88;;;19.50;99.90;;;;;;5034115;28;20180;-61
2023/06/25 02:07:57;;;;;;;22.48;20.20;;;19.50;99.90;;;;;;5033981;28;20180;-61
2023/06/25 02:10:23;;;;;;;23.33;20.83;;;19.40;99.90;;;;;;5034056;28;20203;-61
2023/06/25 02:12:48;;;;;;;23.48;19.60;;;19.40;99.90;;;;;;5033982;28;20183;-61
2023/06/25 02:15:14;;;;;;;21.20;18.83;;;19.50;99.90;;;;;;5033809;28;20545;-61
2023/06/25 02:17:40;;;;;;;22.80;20.02;;;19.50;99.90;;;;;;5033950;28;20266;-60
2023/06/25 02:20:06;;;;;;;26.10;20.73;;;19.50;99.90;;;;;;5033890;28;20179;-61
2023/06/25 02:22:32;;;;;;;23.25;19.58;;;19.50;99.90;;;;;;5033344;28;20257;-61
2023/06/25 02:24:57;;;;;;;24.95;20.67;;;19.40;99.90;;;;;;5033848;28;20259;-61
2023/06/25 02:27:23;;;;;;;22.40;20.05;;;19.40;99.90;;;;;;5033718;28;20255;-61
2023/06/25 02:29:49;;;;;;;23.90;21.13;;;19.30;99.90;;;;;;5033712;28;20245;-61
2023/06/25 02:32:14;;;;;;;22.42;18.80;;;19.40;99.90;;;;;;5034029;28;20184;-60
2023/06/25 02:34:40;;;;;;;24.20;20.27;;;19.40;99.90;;;;;;5033802;28;20172;-61
2023/06/25 02:37:15;;;;;;;24.27;20.30;;;19.40;99.90;;;;;;5033600;28;20168;-61
2023/06/25 02:39:41;;;;;;;23.55;20.35;;;19.40;99.90;;;;;;5033662;28;20171;-61
2023/06/25 02:42:07;;;;;;;23.92;20.60;;;19.40;99.90;;;;;;5033383;28;20214;-61
2023/06/25 02:44:32;;;;;;;26.52;20.95;;;19.50;99.90;;;;;;5033721;28;20187;-61
2023/06/25 02:46:58;;;;;;;22.75;20.00;;;19.50;99.90;;;;;;5033621;28;20172;-61
2023/06/25 02:49:24;;;;;;;23.88;19.90;;;19.50;99.90;;;;;;5033529;28;20175;-60
2023/06/25 02:51:49;;;;;;;24.48;21.10;;;19.50;99.90;;;;;;5033442;28;20177;-61
2023/06/25 02:54:15;;;;;;;23.52;20.67;;;19.50;99.90;;;;;;5033443;28;20176;-61
2023/06/25 02:56:41;;;;;;;23.10;20.50;;;19.40;99.90;;;;;;5033256;28;20218;-61
2023/06/25 02:59:06;;;;;;;23.40;19.77;;;19.40;99.90;;;;;;5033564;28;20174;-61
2023/06/25 03:01:32;;;;;;;24.65;20.55;;;19.30;99.90;;;;;;5033403;28;20176;-61
2023/06/25 03:03:57;;;;;;;24.25;19.90;;;19.30;99.90;;;;;;5033764;28;20640;-61
2023/06/25 03:06:23;;;;;;;24.38;20.35;;;19.30;99.90;;;;;;5033311;28;20171;-63
2023/06/25 03:08:49;;;;;;;23.17;19.92;;;19.30;99.90;;;;;;5033292;28;20195;-60
2023/06/25 03:11:14;;;;;;;26.52;21.73;;;19.30;99.90;;;;;;5033128;28;20187;-60
2023/06/25 03:13:40;;;;;;;24.63;21.10;;;19.20;99.90;;;;;;5033402;28;20176;-61
2023/06/25 03:16:05;;;;;;;24.85;20.10;;;19.30;99.90;;;;;;5033317;28;20541;-61
2023/06/25 03:18:31;;;;;;;25.80;20.98;;;19.20;99.90;;;;;;5033354;28;20238;-60
2023/06/25 03:20:57;;;;;;;25.02;21.15;;;19.20;99.90;;;;;;5033190;28;20176;-61
2023/06/25 03:23:22;;;;;;;24.85;21.77;;;19.20;99.90;;;;;;5032964;28;20573;-61
2023/06/25 03:25:48;;;;;;;24.60;21.25;;;19.20;99.90;;;;;;5033060;28;20187;-60
2023/06/25 03:28:14;;;;;;;27.35;21.60;;;19.20;99.90;;;;;;5033271;28;20259;-60
2023/06/25 03:30:39;;;;;;;26.90;21.98;;;19.20;99.90;;;;;;5033255;28;20208;-60
2023/06/25 03:33:05;;;;;;;27.33;22.52;;;19.10;99.90;;;;;;5033108;28;20184;-60
2023/06/25 03:35:30;;;;;;;24.92;21.95;;;19.10;99.90;;;;;;5036675;28;20176;-61
2023/06/25 03:37:56;;;;;;;26.15;21.98;;;19.00;99.90;;;;;;5037065;28;20206;-61
2023/06/25 03:40:22;;;;;;;26.08;21.60;;;19.00;99.90;;;;;;5036871;28;20537;-60
2023/06/25 03:42:47;;;;;;;29.10;23.20;;;19.00;99.90;;;;;;5037341;28;20692;-61
2023/06/25 03:45:15;;;;;;;26.30;22.23;;;19.00;99.90;;;;;;5036778;28;20607;-61
2023/06/25 03:47:41;;;;;;;26.50;22.40;;;19.00;99.90;;;;;;5036805;28;20192;-60
2023/06/25 03:50:07;;;;;;;27.70;23.17;;;19.00;99.90;;;;;;5036736;28;20184;-61
2023/06/25 03:52:32;;;;;;;27.30;22.77;;;19.00;99.90;;;;;;5036666;28;20722;-61
2023/06/25 03:54:58;;;;;;;29.20;24.70;;;19.00;99.90;;;;;;5036600;28;20255;-61
2023/06/25 03:57:24;;;;;;;28.48;24.02;;;19.00;99.90;;;;;;5036554;28;20178;-60
2023/06/25 03:59:49;;;;;;;31.35;26.20;;;19.00;99.90;;;;;;5036555;28;20184;-61
2023/06/25 04:02:15;;;;;;;30.45;25.92;;;19.10;99.90;;;;;;5036503;28;20207;-61
2023/06/25 04:04:41;;;;;;;29.88;23.67;;;19.00;99.90;;;;;;5036569;28;20180;-61
2023/06/25 04:07:06;;;;;;;30.38;25.27;;;19.10;99.90;;;;;;5036549;28;20183;-60
2023/06/25 04:09:32;;;;;;;29.65;24.13;;;19.10;99.90;;;;;;5036331;28;20184;-61
2023/06/25 04:11:58;;;;;;;31.23;26.50;;;19.20;99.90;;;;;;5036348;28;20192;-61
2023/06/25 04:14:24;;;;;;;32.50;26.60;;;19.20;99.90;;;;;;5036405;28;20172;-60
2023/06/25 04:16:49;;;;;;;32.00;26.58;;;19.20;99.90;;;;;;5035972;28;20637;-60
2023/06/25 04:19:15;;;;;;;30.98;25.63;;;19.20;99.90;;;;;;5036288;28;20167;-60
2023/06/25 04:21:40;;;;;;;31.65;27.00;;;19.30;99.90;;;;;;5018620;28;20177;-61
2023/06/25 04:24:06;;;;;;;35.08;27.85;;;19.20;99.90;;;;;;5018509;28;20180;-60
2023/06/25 04:26:32;;;;;;;31.45;25.85;;;19.20;99.90;;;;;;5035920;28;20183;-60
2023/06/25 04:28:58;;;;;;;29.88;25.75;;;19.30;99.90;;;;;;5036405;28;20583;-61
2023/06/25 04:31:24;;;;;;;33.70;28.02;;;19.30;99.90;;;;;;5036088;28;20184;-59
2023/06/25 04:33:50;;;;;;;33.97;27.20;;;19.40;99.90;;;;;;5036144;28;20175;-60
2023/06/25 04:36:19;;;;;;;32.60;28.15;;;19.40;99.90;;;;;;5035982;28;20173;-60
2023/06/25 04:38:45;;;;;;;33.83;27.63;;;19.30;99.90;;;;;;5035912;28;20222;-61
2023/06/25 04:41:11;;;;;;;30.17;25.92;;;19.40;99.90;;;;;;5035753;28;20176;-61
2023/06/25 04:43:36;;;;;;;31.85;26.85;;;19.50;99.90;;;;;;5035892;28;20204;-60
2023/06/25 04:46:02;;;;;;;32.78;27.20;;;19.50;99.90;;;;;;5035458;28;20184;-60
2023/06/25 04:48:27;;;;;;;31.75;26.98;;;19.60;99.90;;;;;;5035964;28;20540;-60
2023/06/25 04:50:53;;;;;;;32.67;27.58;;;19.60;99.90;;;;;;5035499;28;20176;-60
2023/06/25 04:53:19;;;;;;;34.72;27.63;;;19.60;99.90;;;;;;5035991;28;20187;-61
2023/06/25 04:55:44;;;;;;;33.55;27.63;;;19.70;99.90;;;;;;5035480;28;20195;-60
2023/06/25 04:58:10;;;;;;;35.60;27.60;;;19.70;99.90;;;;;;5035891;28;20176;-60
2023/06/25 05:00:36;;;;;;;30.13;26.33;;;19.90;99.90;;;;;;5035564;28;20183;-59
2023/06/25 05:03:01;;;;;;;33.45;27.70;;;19.90;99.90;;;;;;5035538;28;20214;-61
2023/06/25 05:05:27;;;;;;;29.27;25.88;;;20.00;99.90;;;;;;5035382;28;20580;-61
2023/06/25 05:07:53;;;;;;;30.02;26.08;;;20.00;99.90;;;;;;5035199;28;20222;-60
2023/06/25 05:10:19;;;;;;;31.63;27.60;;;20.10;99.90;;;;;;5017659;28;20179;-60
2023/06/25 05:12:45;;;;;;;27.83;24.65;;;20.10;99.90;;;;;;5035388;28;20707;-61
2023/06/25 05:15:10;;;;;;;29.88;24.63;;;20.20;99.90;;;;;;5035376;28;20180;-60
2023/06/25 05:17:36;;;;;;;28.63;25.17;;;20.30;99.90;;;;;;5035259;28;20235;-60
2023/06/25 05:20:02;;;;;;;28.33;25.20;;;20.30;99.90;;;;;;5035391;28;20172;-61
2023/06/25 05:22:28;;;;;;;28.80;24.20;;;20.30;99.90;;;;;;5035020;28;20204;-60
2023/06/25 05:24:53;;;;;;;29.98;23.70;;;20.50;99.90;;;;;;5035006;28;20187;-60
2023/06/25 05:27:19;;;;;;;29.52;24.15;;;20.60;99.90;;;;;;5035100;28;20180;-60
2023/06/25 05:29:44;;;;;;;27.83;22.70;;;20.70;99.90;;;;;;5035001;28;20176;-61
2023/06/25 05:32:10;;;;;;;26.60;21.67;;;20.80;99.90;;;;;;5034909;28;20202;-61
2023/06/25 05:34:36;;;;;;;24.90;20.58;;;20.90;99.90;;;;;;5034871;28;20656;-60
2023/06/25 05:37:01;;;;;;;22.52;20.10;;;21.00;99.90;;;;;;5034625;28;20179;-60
2023/06/25 05:39:29;;;;;;;24.45;20.02;;;21.00;99.90;;;;;;5034570;28;20176;-60
2023/06/25 05:41:58;;;;;;;21.83;19.15;;;21.10;99.90;;;;;;5037079;28;20203;-60
2023/06/25 05:44:25;;;;;;;22.55;19.10;;;21.20;99.90;;;;;;5042431;28;20211;-60
2023/06/25 05:46:51;;;;;;;23.77;18.45;;;21.30;99.90;;;;;;5045125;28;20186;-60
2023/06/25 05:49:16;;;;;;;23.73;18.40;;;21.50;99.90;;;;;;5043478;28;20522;-60
2023/06/25 05:51:42;;;;;;;21.30;17.65;;;21.50;99.90;;;;;;5038143;28;20186;-61
2023/06/25 05:54:08;;;;;;;17.83;15.93;;;21.50;99.90;;;;;;5034221;28;20179;-60
2023/06/25 05:56:33;;;;;;;18.80;16.77;;;21.70;99.90;;;;;;5047609;28;20672;-60
2023/06/25 05:58:59;;;;;;;18.10;15.82;;;21.80;99.90;;;;;;5054039;28;20644;-61
2023/06/25 06:01:25;;;;;;;17.45;15.18;;;21.90;99.90;;;;;;5053945;28;20179;-60
2023/06/25 06:03:52;;;;;;;18.15;15.15;;;22.00;99.90;;;;;;5053807;28;20214;-60
2023/06/25 06:06:18;;;;;;;18.60;14.02;;;22.10;99.90;;;;;;5053636;28;20178;-60
2023/06/25 06:08:43;;;;;;;15.38;13.43;;;22.20;99.90;;;;;;5053709;28;20180;-60
2023/06/25 06:11:10;;;;;;;16.00;14.07;;;22.30;99.90;;;;;;5051884;28;20186;-60
2023/06/25 06:13:36;;;;;;;19.85;14.25;;;22.30;99.90;;;;;;5051500;28;20546;-60
2023/06/25 06:16:02;;;;;;;15.13;12.52;;;22.30;99.90;;;;;;5053879;28;20176;-60
2023/06/25 06:18:27;;;;;;;14.02;11.27;;;22.40;99.90;;;;;;5053571;28;20587;-60
2023/06/25 06:20:53;;;;;;;14.13;11.40;;;22.40;99.90;;;;;;5053985;28;20178;-60
2023/06/25 06:23:19;;;;;;;14.05;11.27;;;22.50;99.90;;;;;;5053368;28;20218;-60
2023/06/25 06:25:44;;;;;;;13.88;11.05;;;22.60;99.90;;;;;;5053759;28;20190;-60
2023/06/25 06:28:10;;;;;;;12.60;10.10;;;22.80;99.90;;;;;;5053657;28;20178;-60
2023/06/25 06:30:36;;;;;;;11.70;10.35;;;22.90;99.90;;;;;;5053384;28;20203;-60
2023/06/25 06:33:01;;;;;;;12.15;9.60;;;23.00;99.90;;;;;;5053087;28;20185;-62
2023/06/25 06:35:27;;;;;;;11.82;9.20;;;23.20;99.90;;;;;;5052949;28;20637;-60
2023/06/25 06:37:52;;;;;;;9.88;8.77;;;23.30;99.90;;;;;;5047791;28;20186;-60
2023/06/25 06:40:18;;;;;;;10.15;8.95;;;23.40;99.90;;;;;;5015742;28;20179;-60
2023/06/25 06:42:44;;;;;;;9.82;8.80;;;23.30;99.90;;;;;;5033502;28;20210;-61
2023/06/25 06:45:10;;;;;;;10.70;8.32;;;23.40;99.90;;;;;;5033128;28;20644;-60
2023/06/25 06:47:35;;;;;;;11.85;8.50;;;23.60;99.90;;;;;;5033321;28;20172;-61
2023/06/25 06:50:01;;;;;;;11.07;7.47;;;23.80;99.90;;;;;;5033271;28;20168;-60
2023/06/25 06:52:27;;;;;;;7.78;6.85;;;23.70;99.90;;;;;;5032923;28;20282;-61
2023/06/25 06:54:53;;;;;;;7.35;6.30;;;23.90;99.90;;;;;;5033202;28;20172;-61
2023/06/25 06:57:19;;;;;;;8.95;6.20;;;23.90;99.90;;;;;;5033253;28;20645;-61
2023/06/25 06:59:45;;;;;;;6.55;5.40;;;23.80;99.90;;;;;;5033012;28;20262;-61
2023/06/25 07:02:11;;;;;;;6.95;5.95;;;24.00;99.90;;;;;;5033039;28;20230;-62
2023/06/25 07:04:38;;;;;;;7.00;5.40;;;24.10;99.90;;;;;;5032978;28;20648;-59
2023/06/25 07:07:04;;;;;;;6.63;5.60;;;24.20;99.90;;;;;;5032879;28;20261;-60
2023/06/25 07:09:30;;;;;;;6.07;5.47;;;24.40;99.90;;;;;;5033390;28;20267;-59
2023/06/25 07:11:56;;;;;;;7.88;6.07;;;24.40;99.90;;;;;;5015523;28;20599;-59
2023/06/25 07:14:21;;;;;;;8.27;6.03;;;24.50;99.90;;;;;;5033123;28;20180;-59
2023/06/25 07:16:47;;;;;;;6.10;5.50;;;24.50;99.90;;;;;;5032563;28;20550;-60
2023/06/25 07:19:13;;;;;;;6.85;5.82;;;24.70;99.90;;;;;;5032914;28;20172;-59
2023/06/25 07:21:39;;;;;;;6.95;6.25;;;24.80;99.90;;;;;;5032792;28;20215;-60
2023/06/25 07:24:05;;;;;;;6.88;6.15;;;25.10;99.90;;;;;;5033087;28;20656;-59
2023/06/25 07:26:31;;;;;;;7.75;6.03;;;25.20;99.90;;;;;;5033406;28;20180;-59
2023/06/25 07:28:56;;;;;;;7.88;5.90;;;25.30;99.90;;;;;;5033020;28;20588;-59
2023/06/25 07:31:22;;;;;;;8.27;5.95;;;25.30;99.90;;;;;;5034039;28;20629;-59
2023/06/25 07:33:48;;;;;;;6.45;5.78;;;25.40;99.90;;;;;;5033646;28;20676;-59
2023/06/25 07:36:13;;;;;;;7.13;5.95;;;25.40;99.90;;;;;;5038552;28;20188;-59
2023/06/25 07:38:39;;;;;;;6.10;5.38;;;25.60;99.90;;;;;;5032719;28;20176;-59
2023/06/25 07:41:05;;;;;;;6.45;5.82;;;25.60;99.90;;;;;;5015287;28;20176;-59
2023/06/25 07:43:30;;;;;;;7.63;6.05;;;25.70;99.90;;;;;;5034167;28;20583;-59
2023/06/25 07:45:56;;;;;;;7.65;5.65;;;25.70;99.90;;;;;;5052739;28;20176;-59
2023/06/25 07:48:22;;;;;;;6.10;5.50;;;25.70;99.90;;;;;;5052692;28;20627;-59
2023/06/25 07:50:47;;;;;;;6.13;5.05;;;25.70;99.90;;;;;;5052920;28;20288;-60
2023/06/25 07:53:13;;;;;;;5.72;5.03;;;26.00;99.90;;;;;;5052371;28;20180;-59
2023/06/25 07:55:41;;;;;;;7.85;5.35;;;25.90;99.90;;;;;;5052020;28;20217;-66
2023/06/25 07:58:07;;;;;;;8.40;5.00;;;26.10;99.90;;;;;;5034201;28;20292;-61
2023/06/25 08:00:34;;;;;;;7.47;5.68;;;26.30;99.90;;;;;;5051884;28;20176;-61
2023/06/25 08:03:00;;;;;;;6.25;5.13;;;26.30;99.90;;;;;;5051760;28;20199;-60
2023/06/25 08:05:26;;;;;;;7.13;4.70;;;26.50;99.90;;;;;;5051676;28;20180;-61
2023/06/25 08:07:51;;;;;;;8.20;5.20;;;26.50;99.90;;;;;;5051925;28;20176;-61
2023/06/25 08:10:17;;;;;;;4.38;3.97;;;26.60;99.90;;;;;;5051877;28;20197;-61
2023/06/25 08:12:43;;;;;;;5.30;4.50;;;26.60;99.90;;;;;;5051649;28;20213;-61
2023/06/25 08:15:09;;;;;;;5.18;4.55;;;26.80;99.90;;;;;;5051706;28;20266;-61
2023/06/25 08:17:35;;;;;;;6.35;5.13;;;26.90;99.90;;;;;;5051779;28;20755;-61
2023/06/25 08:20:01;;;;;;;7.40;4.57;;;27.00;99.90;;;;;;5052577;28;20176;-61
2023/06/25 08:22:26;;;;;;;4.70;4.30;;;27.20;99.90;;;;;;5055130;28;20656;-62
2023/06/25 08:24:53;;;;;;;6.95;5.07;;;27.20;99.90;;;;;;5055363;28;20296;-68
2023/06/25 08:27:19;;;;;;;6.22;4.35;;;27.30;99.90;;;;;;5055406;28;20171;-64
2023/06/25 08:29:44;;;;;;;4.90;3.92;;;27.40;99.90;;;;;;5055216;28;20213;-64
2023/06/25 08:32:10;;;;;;;7.55;4.57;;;27.50;99.90;;;;;;5055133;28;20540;-64
2023/06/25 08:34:37;;;;;;;4.60;4.07;;;27.80;99.90;;;;;;5055244;28;20237;-64
2023/06/25 08:37:04;;;;;;;5.38;4.40;;;27.80;99.90;;;;;;5055437;28;20258;-64
2023/06/25 08:39:29;;;;;;;6.18;3.70;;;27.90;99.90;;;;;;5055490;28;20233;-64
2023/06/25 08:41:55;;;;;;;6.22;4.10;;;28.10;99.90;;;;;;5055111;28;20175;-64
2023/06/25 08:44:21;;;;;;;5.78;3.63;;;28.10;99.90;;;;;;5054943;28;20176;-64
2023/06/25 08:46:48;;;;;;;5.22;3.60;;;28.20;99.90;;;;;;5054896;28;20171;-64
2023/06/25 08:49:15;;;;;;;3.58;3.28;;;28.30;99.90;;;;;;5054664;28;20167;-64
2023/06/25 08:51:41;;;;;;;6.15;3.42;;;28.10;99.90;;;;;;5054839;28;20175;-63
2023/06/25 08:54:07;;;;;;;6.72;3.88;;;28.20;99.90;;;;;;5054826;28;20604;-64
2023/06/25 08:56:33;;;;;;;3.30;2.92;;;28.30;99.90;;;;;;5054765;28;20247;-64
2023/06/25 08:58:59;;;;;;;3.80;3.40;;;28.40;99.90;;;;;;5054659;28;20266;-63
2023/06/25 09:01:25;;;;;;;5.03;3.20;;;28.40;99.90;;;;;;5054622;28;20189;-65
2023/06/25 09:03:52;;;;;;;4.18;3.45;;;28.40;99.90;;;;;;5054314;28;20200;-64
2023/06/25 09:06:18;;;;;;;3.88;2.95;;;28.40;99.90;;;;;;5054652;28;20183;-65
2023/06/25 09:08:44;;;;;;;4.15;3.38;;;28.40;99.90;;;;;;5054570;28;20672;-64
2023/06/25 09:11:10;;;;;;;3.83;3.10;;;28.40;99.90;;;;;;5054519;28;20180;-65
2023/06/25 09:13:38;;;;;;;4.18;3.30;;;28.60;99.90;;;;;;5036456;28;20718;-65
2023/06/25 09:16:06;;;;;;;3.85;3.45;;;28.80;99.90;;;;;;5054156;28;20191;-65
2023/06/25 09:18:32;;;;;;;4.88;3.20;;;28.90;99.90;;;;;;5053967;28;20226;-65
2023/06/25 09:21:05;;;;;;;4.55;3.55;;;29.00;99.90;;;;;;5054377;28;20297;-65
2023/06/25 09:23:31;;;;;;;5.05;3.50;;;29.00;99.90;;;;;;5054138;28;20207;-65
2023/06/25 09:25:58;;;;;;;4.50;3.70;;;28.90;99.90;;;;;;5054194;28;20182;-65
2023/06/25 09:28:24;;;;;;;4.93;3.25;;;29.00;99.90;;;;;;5053968;28;20567;-65
2023/06/25 09:30:56;;;;;;;3.80;3.25;;;29.00;99.90;;;;;;5053591;28;20559;-65
2023/06/25 09:33:35;;;;;;;3.42;3.10;;;28.90;99.90;;;;;;5053382;28;20596;-65
2023/06/25 09:36:03;;;;;;;4.35;3.50;;;29.30;99.90;;;;;;5053870;28;20174;-65
2023/06/25 09:38:29;;;;;;;3.92;3.25;;;29.40;99.90;;;;;;5053826;28;20168;-65
2023/06/25 09:40:58;;;;;;;4.60;3.28;;;29.60;99.90;;;;;;5053709;28;20190;-65
2023/06/25 09:43:26;;;;;;;4.78;3.10;;;29.70;99.90;;;;;;5053525;28;20759;-65
2023/06/25 09:45:53;;;;;;;4.22;3.15;;;29.80;99.90;;;;;;5053910;28;20233;-65
2023/06/25 09:48:24;;;;;;;4.93;3.47;;;30.00;99.90;;;;;;5053751;28;20175;-65
2023/06/25 09:50:50;;;;;;;3.78;3.22;;;30.10;99.60;;;;;;5053724;28;20481;-65
2023/06/25 09:53:23;;;;;;;4.53;3.25;;;29.90;98.40;;;;;;5053559;28;20201;-65
2023/06/25 09:55:51;;;;;;;3.80;3.30;;;30.00;99.30;;;;;;5053405;28;20206;-65
2023/06/25 09:58:18;;;;;;;4.38;3.70;;;29.90;97.90;;;;;;5053334;28;20195;-65
2023/06/25 10:00:44;;;;;;;4.30;3.45;;;30.10;99.40;;;;;;5053641;28;20175;-65
2023/06/25 10:03:11;;;;;;;4.97;3.50;;;30.30;97.60;;;;;;5053459;28;20218;-65
2023/06/25 10:05:37;;;;;;;5.57;3.35;;;30.30;98.50;;;;;;5053426;28;20176;-65
2023/06/25 10:08:04;;;;;;;4.22;3.28;;;30.20;97.90;;;;;;5053330;28;20174;-65
2023/06/25 10:10:30;;;;;;;4.75;3.10;;;30.30;98.50;;;;;;5053214;28;20254;-65
2023/06/25 10:12:55;;;;;;;6.57;3.47;;;30.40;97.50;;;;;;5053109;28;20724;-65
2023/06/25 10:15:31;;;;;;;3.90;3.40;;;30.50;97.20;;;;;;5053364;28;20179;-65
2023/06/25 10:18:03;;;;;;;3.65;3.33;;;30.50;98.20;;;;;;5052824;28;20686;-65
2023/06/25 10:20:33;;;;;;;4.20;3.75;;;30.40;95.40;;;;;;5053071;28;20172;-65
2023/06/25 10:23:10;;;;;;;3.67;3.38;;;30.40;97.20;;;;;;5052939;28;20553;-66
2023/06/25 10:25:39;;;;;;;4.72;3.42;;;30.40;96.70;;;;;;5053056;28;20273;-65
2023/06/25 10:28:09;;;;;;;3.70;3.35;;;30.20;96.30;;;;;;5053007;28;20186;-65
2023/06/25 10:30:37;;;;;;;4.22;3.38;;;30.40;95.30;;;;;;5052961;28;20175;-65
2023/06/25 10:33:03;;;;;;;4.75;3.58;;;30.40;96.50;;;;;;5052917;28;20176;-65
2023/06/25 10:35:37;;;;;;;5.63;3.78;;;30.50;97.60;;;;;;5053072;28;20176;-66
2023/06/25 10:38:03;;;;;;;4.57;3.75;;;30.70;97.20;;;;;;5053005;28;20628;-66
2023/06/25 10:40:34;;;;;;;3.83;3.47;;;30.70;96.70;;;;;;5053041;28;20228;-66
2023/06/25 10:43:01;;;;;;;3.78;3.45;;;30.60;95.20;;;;;;5052508;28;20297;-63
2023/06/25 10:45:26;;;;;;;5.32;3.67;;;30.50;94.80;;;;;;5052847;28;20274;-63
2023/06/25 10:48:03;;;;;;;5.32;3.70;;;30.80;96.10;;;;;;5052732;28;20601;-64
2023/06/25 10:50:35;;;;;;;4.85;3.70;;;30.90;96.30;;;;;;5052490;28;20578;-64
2023/06/25 10:53:02;;;;;;;4.22;3.30;;;30.80;95.50;;;;;;5052810;28;20308;-65
2023/06/25 10:55:28;;;;;;;3.25;2.97;;;30.80;95.20;;;;;;5052477;28;20197;-66
2023/06/25 10:57:55;;;;;;;4.15;3.47;;;30.80;95.10;;;;;;5052576;28;20175;-64
2023/06/25 11:00:22;;;;;;;3.70;3.40;;;30.90;94.80;;;;;;5052490;28;20659;-63
2023/06/25 11:02:52;;;;;;;3.38;3.08;;;31.10;94.50;;;;;;5052272;28;20207;-64
2023/06/25 11:05:19;;;;;;;5.20;3.38;;;31.00;92.60;;;;;;5052642;28;20180;-63
2023/06/25 11:07:45;;;;;;;4.80;3.38;;;31.00;94.30;;;;;;5052539;28;20189;-63
2023/06/25 11:10:13;;;;;;;3.80;3.20;;;31.20;94.70;;;;;;5052794;28;20312;-63
2023/06/25 11:12:38;;;;;;;3.70;3.30;;;31.10;93.40;;;;;;5052379;28;20210;-63
2023/06/25 11:15:04;;;;;;;4.43;3.03;;;31.20;93.90;;;;;;5052251;28;20265;-65
2023/06/25 11:17:30;;;;;;;5.80;3.58;;;31.30;95.00;;;;;;5052142;28;20231;-64
2023/06/25 11:19:57;;;;;;;4.32;3.50;;;31.40;93.50;;;;;;5052497;28;20181;-64
2023/06/25 11:22:22;;;;;;;3.88;3.33;;;31.50;93.70;;;;;;5052224;28;20207;-64
2023/06/25 11:24:49;;;;;;;5.82;3.38;;;31.70;94.90;;;;;;5052220;28;20219;-64
2023/06/25 11:27:24;;;;;;;6.97;3.67;;;31.70;94.60;;;;;;5052306;28;20209;-64
2023/06/25 11:29:51;;;;;;;4.93;3.45;;;31.60;94.20;;;;;;5052249;28;20178;-64
2023/06/25 11:32:25;;;;;;;3.88;3.40;;;31.60;93.90;;;;;;5052106;28;20262;-64
2023/06/25 11:34:50;;;;;;;3.95;3.40;;;31.80;95.10;;;;;;5052377;28;20187;-64
2023/06/25 11:37:20;;;;;;;3.17;2.90;;;31.90;93.70;;;;;;5052105;28;20690;-64
2023/06/25 11:39:49;;;;;;;3.15;2.85;;;31.80;93.80;;;;;;5052246;28;20171;-64
2023/06/25 11:42:20;;;;;;;3.45;3.15;;;31.80;93.20;;;;;;5051947;28;20315;-64
2023/06/25 11:44:57;;;;;;;4.95;3.45;;;31.80;93.60;;;;;;5052338;28;20228;-64
2023/06/25 11:47:22;;;;;;;4.10;3.30;;;31.70;92.90;;;;;;5051877;28;20592;-64
2023/06/25 11:49:55;;;;;;;4.47;3.33;;;31.70;92.50;;;;;;5052120;28;20195;-64
2023/06/25 11:52:21;;;;;;;3.60;3.30;;;31.60;92.00;;;;;;5052148;28;20179;-64
2023/06/25 11:54:47;;;;;;;3.50;3.20;;;31.60;92.10;;;;;;5052469;28;20651;-64
2023/06/25 11:57:13;;;;;;;4.57;3.17;;;31.70;93.00;;;;;;5055773;28;20175;-64
2023/06/25 11:59:38;;;;;;;3.67;3.28;;;31.90;93.40;;;;;;5056057;28;20171;-64
2023/06/25 12:02:05;;;;;;;4.53;3.55;;;31.70;93.40;;;;;;5055840;28;20180;-64
2023/06/25 12:04:30;;;;;;;3.92;3.28;;;31.90;92.60;;;;;;5055856;28;20177;-64
2023/06/25 12:06:56;;;;;;;5.93;3.15;;;31.80;92.70;;;;;;5055815;28;20171;-64
2023/06/25 12:09:21;;;;;;;3.70;3.10;;;31.80;92.40;;;;;;5055709;28;20593;-64
2023/06/25 12:11:47;;;;;;;4.30;2.92;;;31.80;92.50;;;;;;5055535;28;20258;-64
2023/06/25 12:14:13;;;;;;;4.18;3.22;;;31.90;91.30;;;;;;5055655;28;20167;-65
2023/06/25 12:16:38;;;;;;;3.38;2.78;;;32.00;91.40;;;;;;5055691;28;20309;-64
2023/06/25 12:19:05;;;;;;;4.22;3.65;;;31.90;92.20;;;;;;5055557;28;20215;-64
2023/06/25 12:21:31;;;;;;;4.72;3.30;;;32.00;92.60;;;;;;5055672;28;20186;-64
2023/06/25 12:23:57;;;;;;;4.00;3.60;;;31.90;91.70;;;;;;5055291;28;20260;-64
2023/06/25 12:26:22;;;;;;;3.45;3.05;;;31.80;91.40;;;;;;5055242;28;20274;-65
2023/06/25 12:28:48;;;;;;;5.65;3.30;;;31.70;91.10;;;;;;5055493;28;20284;-64
2023/06/25 12:31:15;;;;;;;5.10;3.20;;;31.90;91.40;;;;;;5055323;28;20176;-64